x

Nantucket 54nm Southeast Of Nantucket (44008) Wave Buoy

9:50am - Mon 30th Mar 2015 All times are EDT. -4 hours from GMT.

  • Sig Wave height 3.9ft
  • Swell Direction
  • Peak Period 10s
  • Average Period 6s
  • Wind
    18mph, 20mph gusts
  • Sea Temp 41°f
  • Air Temp 40°f
  • Sea Pressure 1015.8mb
  • Nantucket 54nm Southeast Of Nantucket
  • Nantucket 54nm Southeast Of Nantucket

More Historic Weather Station data

Upgrade to MSW Pro to gain access to the past 30 days of data for over 8000 Wavebouys and Weather Stations around the globe.

Join Pro

Comparision Forecast

View Surf forecast
   
Mon 03/30 9:50am 4ft 10s 6s 18 20 mph 1015.8mb 41f 40f
8:50am 4ft 10s 6s 16 18 mph 1017mb 41f 39f
7:50am 4.5ft 10s 7s 13 16 mph 1017.9mb 41f 38f
6:50am 4.5ft 8s 6s 13 16 mph 1018.6mb 40f 37f
5:50am 4.5ft 9s 6s 11 16 mph 1018.6mb 40f 37f
4:50am 5ft 9s 7s 11 16 mph 1018.7mb 40f 37f
3:50am 5ft 9s 7s 11 13 mph 1019mb 40f 36f
2:50am 6ft 10s 7s 13 16 mph 1019.7mb 40f 35f
1:50am 6ft 8s 7s 7 9 mph 1019.8mb 40f 35f
12:50am 5.5ft 10s 7s 9 11 mph 1020.5mb 40f 35f
Sun 03/29 11:50pm 5.5ft 10s 7s 7 11 mph 1020.9mb 41f 35f
10:50pm 6ft 9s 7s 9 13 mph 1021.4mb 41f 35f
9:50pm 6.5ft 10s 7s 11 13 mph 1021.9mb 41f 35f
8:50pm 6ft 10s 7s 9 13 mph 1021.8mb 41f 36f
7:50pm 6ft 11s 7s 11 13 mph 1020.9mb 41f 36f
6:50pm 6.5ft 10s 7s 13 18 mph 1020.4mb 41f 36f
5:50pm 7ft 10s 7s 13 16 mph 1019.8mb 41f 37f
4:50pm 7ft 10s 7s 16 20 mph 1019.5mb 41f 37f
3:50pm 7ft 9s 7s 16 20 mph 1019.3mb 41f 37f
2:50pm 8ft 10s 7s 16 20 mph 1019.3mb 41f 38f
1:50pm 8.5ft 10s 7s 16 18 mph 1019.5mb 41f 38f
12:50pm 8ft 11s 7s 18 22 mph 1019.9mb 41f 38f
11:50am 9ft 11s 7s 22 25 mph 1019.4mb 41f 37f
10:50am 9ft 11s 7s 18 22 mph 1019.5mb 41f 38f
9:50am 9ft 10s 7s 16 20 mph 1019.1mb 41f 37f
8:50am 9.5ft 9s 7s 18 22 mph 1018.1mb 41f 37f
7:50am 10ft 10s 7s 18 20 mph 1017.6mb 41f 37f
6:50am 9.5ft 10s 8s 16 20 mph 1017mb 41f 37f
5:50am 10ft 11s 8s 16 20 mph 1016.4mb 41f 36f
4:50am 11ft 9s 8s 13 18 mph 1015.6mb 41f 37f
3:50am 11ft 10s 8s 11 13 mph 1015.2mb 41f 36f
2:50am 10.5ft 10s 8s 11 16 mph 1015.2mb 41f 36f
1:50am 12ft 9s 8s 11 16 mph 1015.1mb 41f 36f
12:50am 12ft 9s 7s 13 16 mph 1014.6mb 41f 37f
Sat 03/28 11:50pm 13ft 9s 8s 16 18 mph 1014.1mb 41f 37f
10:50pm 13ft 9s 8s 16 20 mph 1013.7mb 41f 37f
9:50pm 12ft 8s 7s 16 20 mph 1013.4mb 40f 37f
8:50pm 13ft 8s 7s 18 22 mph 1012.3mb 40f 37f
7:50pm 11ft 8s 7s 20 25 mph 1010.4mb 40f 38f
6:50pm 11.5ft 9s 7s 22 27 mph 1008.6mb 40f 37f
5:50pm 10.5ft 8s 7s 22 29 mph 1006.5mb 40f 38f
4:50pm 11.5ft 8s 7s 27 31 mph 1003.5mb 40f 38f
3:50pm 10.5ft 7s 7s 27 34 mph 1001.5mb 40f 39f
2:50pm 11.5ft 11s 7s 31 36 mph 999.2mb 40f 38f
1:50pm 11.5ft 11s 7s 31 40 mph 998.5mb 40f 37f
12:50pm 10ft 11s 7s 29 36 mph 998.7mb 40f 39f
11:50am 9.5ft 11s 6s 25 31 mph 998.5mb 40f 39f
10:50am 9ft 11s 6s 27 34 mph 998.8mb 40f 39f
9:50am 11ft 11s 7s 27 31 mph 999.9mb 40f 40f
8:50am 11.5ft 12s 7s 25 31 mph 1000mb 40f 40f
7:50am 12ft 11s 8s 25 29 mph 1000.6mb 40f 40f
6:50am 11.5ft 11s 8s 25 29 mph 1000.3mb 40f 40f
5:50am 11ft 12s 8s 20 31 mph 1001mb 40f 40f
4:50am 10.5ft 11s 9s 20 27 mph 1001.8mb 40f 40f
3:50am 11ft 11s 8s 20 25 mph 1002.8mb 40f 40f
2:50am 11ft 11s 8s 18 22 mph 1004mb 40f 40f
1:50am 11.5ft 11s 9s 18 22 mph 1004.1mb 40f 40f
12:50am 11ft 11s 8s 16 20 mph 1005.1mb 40f 40f
Fri 03/27 11:50pm 13ft 11s 9s 13 20 mph 1005.9mb 40f 40f
10:50pm 11ft 11s 8s 13 16 mph 1005.9mb 40f 40f
9:50pm 12.5ft 11s 9s 13 20 mph 1004.5mb 40f 40f
8:50pm 11ft 11s 8s 16 22 mph 1005.2mb 40f 40f
7:50pm 12ft 11s 8s 16 22 mph 1004.7mb 41f 40f
6:50pm 11ft 11s 8s 18 22 mph 1004.2mb 41f 40f
5:50pm 12ft 11s 8s 16 20 mph 1003.5mb 41f 40f
4:50pm 11.5ft 11s 8s 13 20 mph 1002.7mb 41f 41f
3:50pm 12ft 11s 8s 16 22 mph 1001.3mb 40f 41f
2:50pm 12ft 11s 8s 18 22 mph 1001.5mb 40f 40f
1:50pm 12.5ft 12s 8s 16 20 mph 1002.3mb 40f 40f
12:50pm 14ft 11s 9s 18 25 mph 1001.7mb 40f 40f
11:50am 15ft 12s 9s 18 25 mph 1002.2mb 40f 40f
10:50am 12.5ft 11s 9s 11 18 mph 1003.5mb 40f 40f
9:50am 13ft 11s 9s 7 11 mph 1003.8mb 40f 40f
8:50am 12ft 11s 8s 11 13 mph 1003mb 40f 42f
7:50am 11.5ft 11s 8s 9 11 mph 1003.2mb 40f 44f
6:50am 12ft 10s 8s 9 11 mph 1002.8mb 41f 44f
5:50am 11.5ft 10s 8s 11 13 mph 1002.4mb 41f 44f
4:50am 11.5ft 9s 7s 13 18 mph 1002mb 41f 47f
3:50am 12ft 10s 7s 20 22 mph 1001.9mb 41f 49f
2:50am 12.5ft 9s 7s 25 27 mph 1002.3mb 41f 50f
1:50am 11ft 9s 6s 27 31 mph 1002.9mb 40f 51f
12:50am 10ft 8s 6s 25 31 mph 1003.4mb 40f 50f
Thu 03/26 11:50pm 10.5ft 8s 7s 25 29 mph 1004.4mb 40f 50f
10:50pm 10ft 9s 7s 25 29 mph 1006mb 40f 50f
9:50pm 10ft 9s 7s 22 27 mph 1007.1mb 40f 49f
8:50pm 9.5ft 9s 6s 25 27 mph 1007.9mb 41f 49f
7:50pm 8.5ft 8s 6s 29 34 mph 1007.7mb 41f 51f
6:50pm 7ft 7s 6s 27 31 mph 1008.6mb 41f 50f
5:50pm 6ft 7s 5s 25 27 mph 1009.3mb 41f 49f
4:50pm 5.5ft 6s 5s 22 27 mph 1010.3mb 41f 49f
3:50pm 5.5ft 7s 5s 22 27 mph 1011.2mb 41f 49f
2:50pm 5.5ft 7s 5s 22 27 mph 1011.7mb 40f 49f